createdAt,value
2022-08-26T00:00:21.667Z,99.90
2022-08-26T00:05:42.069Z,99.90
2022-08-26T00:10:45.560Z,99.90
2022-08-26T00:15:48.608Z,99.90
2022-08-26T00:20:52.166Z,99.90
2022-08-26T00:25:55.738Z,99.90
2022-08-26T00:31:00.188Z,99.90
2022-08-26T00:36:05.802Z,99.90
2022-08-26T00:41:09.019Z,99.90
2022-08-26T00:46:19.732Z,99.90
2022-08-26T00:51:29.628Z,99.90
2022-08-26T00:57:02.968Z,99.90
2022-08-26T01:02:07.738Z,99.90
2022-08-26T01:07:25.920Z,99.90
2022-08-26T01:12:34.709Z,99.90
2022-08-26T01:17:42.458Z,99.90
2022-08-26T01:22:56.709Z,99.90
2022-08-26T01:28:03.179Z,99.90
2022-08-26T01:33:11.510Z,99.90
2022-08-26T01:38:16.728Z,99.90
2022-08-26T01:43:25.525Z,99.90
2022-08-26T01:48:32.443Z,99.90
2022-08-26T01:53:36.249Z,99.90
2022-08-26T01:58:45.981Z,99.90
2022-08-26T02:04:10.779Z,99.90
2022-08-26T02:09:15.322Z,99.90
2022-08-26T02:14:23.561Z,99.90
2022-08-26T02:19:36.361Z,99.90
2022-08-26T02:24:52.222Z,99.90
2022-08-26T02:30:10.307Z,99.90
2022-08-26T02:35:18.200Z,99.90
2022-08-26T02:40:28.257Z,99.90
2022-08-26T02:45:32.181Z,99.90
2022-08-26T02:50:35.950Z,99.90
2022-08-26T02:55:39.321Z,99.90
2022-08-26T03:00:52.630Z,99.90
2022-08-26T03:05:57.021Z,99.90
2022-08-26T03:11:01.522Z,99.90
2022-08-26T03:16:05.949Z,99.90
2022-08-26T03:21:11.741Z,99.90
2022-08-26T03:26:16.321Z,99.90
2022-08-26T03:31:19.658Z,99.90
2022-08-26T03:36:28.129Z,99.90
2022-08-26T03:41:35.174Z,99.90
2022-08-26T03:46:39.309Z,99.90
2022-08-26T03:51:42.871Z,99.90
2022-08-26T03:56:48.241Z,99.90
2022-08-26T04:01:51.963Z,99.90
2022-08-26T04:07:00.025Z,99.90
2022-08-26T04:12:04.613Z,99.90
2022-08-26T04:17:08.283Z,99.90
2022-08-26T04:22:12.202Z,99.90
2022-08-26T04:27:15.727Z,99.90
2022-08-26T04:32:20.094Z,99.90
2022-08-26T04:37:23.601Z,99.90
2022-08-26T04:42:27.146Z,99.90
2022-08-26T04:47:32.480Z,99.90
2022-08-26T04:52:37.254Z,99.90
2022-08-26T04:57:41.335Z,99.90
2022-08-26T05:02:44.655Z,99.90
2022-08-26T05:07:48.300Z,99.90
2022-08-26T05:12:53.532Z,99.90
2022-08-26T05:17:59.343Z,99.90
2022-08-26T05:23:05.194Z,99.90
2022-08-26T05:28:13.511Z,99.90
2022-08-26T05:33:18.554Z,99.90
2022-08-26T05:38:22.794Z,99.90
2022-08-26T05:43:25.794Z,99.90
2022-08-26T05:48:28.912Z,99.90
2022-08-26T05:53:33.244Z,99.90
2022-08-26T05:58:40.175Z,99.90
2022-08-26T06:03:46.990Z,99.90
2022-08-26T06:52:10.946Z,99.90
2022-08-26T06:57:14.484Z,99.90
2022-08-26T07:02:20.875Z,99.90
2022-08-26T07:07:24.224Z,99.90
2022-08-26T07:12:28.235Z,99.90
2022-08-26T07:17:36.009Z,99.90
2022-08-26T07:22:40.074Z,99.90
2022-08-26T07:27:45.854Z,99.90
2022-08-26T07:32:58.373Z,99.90
2022-08-26T07:38:02.328Z,99.90
2022-08-26T07:43:05.719Z,99.90
2022-08-26T07:48:09.235Z,99.90
2022-08-26T07:53:15.583Z,99.90
2022-08-26T07:58:21.548Z,99.90
2022-08-26T08:03:25.434Z,99.90
2022-08-26T08:08:29.081Z,99.90
2022-08-26T08:13:32.774Z,99.90
2022-08-26T08:18:35.816Z,99.90
2022-08-26T08:23:40.322Z,99.90
2022-08-26T08:28:43.535Z,99.20
2022-08-26T08:33:47.557Z,96.60
2022-08-26T08:38:51.194Z,93.80
2022-08-26T08:43:56.464Z,93.80
2022-08-26T08:49:00.401Z,90.50
2022-08-26T08:54:06.716Z,90.40
2022-08-26T08:59:34.146Z,91.30
2022-08-26T09:04:47.677Z,91.80
2022-08-26T09:09:59.784Z,89.90
2022-08-26T09:15:07.453Z,85.70
2022-08-26T09:20:50.186Z,83.60
2022-08-26T09:25:58.820Z,78.10
2022-08-26T09:31:15.918Z,74.10
2022-08-26T09:36:24.920Z,70.20
2022-08-26T09:41:33.786Z,72.00
2022-08-26T09:51:46.333Z,66.20
2022-08-26T09:57:10.663Z,67.00
2022-08-26T10:02:34.466Z,65.30
2022-08-26T10:07:48.534Z,62.80
2022-08-26T10:13:03.675Z,62.10
2022-08-26T10:18:25.781Z,65.20
2022-08-26T10:23:35.285Z,67.40
2022-08-26T10:28:48.980Z,63.50
2022-08-26T10:33:58.023Z,58.80
2022-08-26T10:39:07.116Z,58.40
2022-08-26T10:44:14.005Z,58.30
2022-08-26T10:49:18.602Z,56.60
2022-08-26T10:54:29.254Z,57.70
2022-08-26T10:59:47.956Z,56.90
2022-08-26T11:05:07.478Z,54.30
2022-08-26T11:10:17.891Z,53.20
2022-08-26T11:15:24.542Z,53.70
2022-08-26T11:20:39.231Z,52.90
2022-08-26T11:26:16.408Z,51.90
2022-08-26T11:31:40.493Z,53.80
2022-08-26T11:37:02.175Z,50.90
2022-08-26T11:42:22.344Z,53.30
2022-08-26T11:47:30.046Z,52.90
2022-08-26T11:52:33.645Z,49.80
2022-08-26T11:57:46.073Z,50.00
2022-08-26T12:02:50.045Z,50.70
2022-08-26T12:07:56.244Z,51.30
2022-08-26T12:13:02.518Z,50.40
2022-08-26T12:18:33.803Z,52.70
2022-08-26T12:23:37.082Z,49.30
2022-08-26T12:28:45.609Z,50.60
2022-08-26T12:33:49.856Z,50.00
2022-08-26T12:38:56.440Z,51.20
2022-08-26T12:44:01.442Z,48.10
2022-08-26T12:49:08.514Z,47.30
2022-08-26T12:54:16.348Z,47.70
2022-08-26T12:59:25.439Z,48.30
2022-08-26T13:04:36.204Z,48.70
2022-08-26T13:09:39.473Z,48.60
2022-08-26T13:14:42.756Z,47.60
2022-08-26T13:19:46.297Z,50.90
2022-08-26T13:24:49.636Z,50.40
2022-08-26T13:29:53.787Z,49.30
2022-08-26T13:34:58.599Z,48.10
2022-08-26T13:40:07.065Z,48.30
2022-08-26T13:45:11.266Z,48.60
2022-08-26T13:50:14.755Z,47.60
2022-08-26T13:55:18.555Z,48.00
2022-08-26T14:00:22.570Z,48.00
2022-08-26T14:05:26.475Z,48.70
2022-08-26T14:10:29.813Z,48.80
2022-08-26T14:15:36.834Z,47.40
2022-08-26T14:20:40.496Z,47.10
2022-08-26T14:25:44.085Z,46.70
2022-08-26T14:30:53.028Z,46.60
2022-08-26T14:36:16.270Z,46.10
2022-08-26T14:41:20.696Z,46.10
2022-08-26T14:46:23.900Z,45.80
2022-08-26T14:51:27.497Z,46.70
2022-08-26T14:56:31.786Z,45.90
2022-08-26T15:01:35.282Z,44.60
2022-08-26T15:06:38.953Z,46.10
2022-08-26T15:11:42.453Z,47.10
2022-08-26T15:16:47.256Z,45.70
2022-08-26T15:21:51.957Z,45.50
2022-08-26T15:26:55.602Z,46.50
2022-08-26T15:31:59.436Z,47.60
2022-08-26T15:37:02.617Z,46.70
2022-08-26T15:42:05.891Z,46.30
2022-08-26T15:53:58.444Z,47.50
2022-08-26T15:59:02.763Z,48.50
2022-08-26T16:04:06.485Z,47.50
2022-08-26T16:09:10.095Z,48.80
2022-08-26T16:14:19.762Z,49.20
2022-08-26T16:19:23.175Z,48.30
2022-08-26T16:24:30.355Z,49.40
2022-08-26T16:29:34.135Z,49.00
2022-08-26T16:34:37.454Z,49.30
2022-08-26T16:39:50.431Z,49.90
2022-08-26T16:44:54.847Z,49.80
2022-08-26T16:49:58.428Z,50.60
2022-08-26T16:55:01.499Z,51.70
2022-08-26T17:00:13.204Z,52.50
2022-08-26T17:05:16.744Z,53.00
2022-08-26T17:10:22.903Z,53.30
2022-08-26T17:15:26.519Z,54.50
2022-08-26T17:20:30.321Z,55.10
2022-08-26T17:25:33.885Z,55.80
2022-08-26T17:30:37.389Z,56.50
2022-08-26T17:35:40.891Z,57.90
2022-08-26T17:40:44.157Z,58.80
2022-08-26T17:45:47.357Z,62.00
2022-08-26T17:50:51.072Z,64.30
2022-08-26T17:55:54.311Z,69.10
2022-08-26T18:00:57.783Z,71.70
2022-08-26T18:06:01.276Z,76.90
2022-08-26T18:11:08.336Z,78.30
2022-08-26T18:16:13.560Z,77.60
2022-08-26T18:21:26.195Z,80.20
2022-08-26T18:26:38.658Z,83.10
2022-08-26T18:31:42.172Z,83.40
2022-08-26T18:51:03.520Z,93.70
2022-08-26T18:56:51.880Z,94.80
2022-08-26T19:29:53.659Z,99.90
2022-08-26T19:34:57.673Z,99.90
2022-08-26T19:40:02.022Z,99.90
2022-08-26T19:45:09.298Z,99.90
2022-08-26T19:50:30.731Z,99.90
2022-08-26T19:56:05.022Z,99.90
2022-08-26T20:01:20.447Z,99.90
2022-08-26T20:06:24.746Z,99.90
2022-08-26T20:11:28.444Z,99.90
2022-08-26T20:22:24.761Z,99.90
2022-08-26T20:28:01.515Z,99.90
2022-08-26T20:33:08.567Z,99.90
2022-08-26T20:38:51.355Z,99.90
2022-08-26T20:44:13.109Z,99.90
2022-08-26T20:49:24.335Z,99.90
2022-08-26T20:54:30.756Z,99.90
2022-08-26T20:59:34.925Z,99.90
2022-08-26T21:04:38.980Z,99.90
2022-08-26T21:09:42.506Z,99.90
2022-08-26T21:14:49.558Z,99.90
2022-08-26T21:19:53.954Z,99.90
2022-08-26T21:24:58.455Z,99.90
2022-08-26T21:30:10.466Z,99.90
2022-08-26T21:35:14.125Z,99.90
2022-08-26T21:40:17.361Z,99.90
2022-08-26T21:45:21.530Z,99.90
2022-08-26T21:50:24.751Z,99.90
2022-08-26T21:55:28.004Z,99.90
2022-08-26T22:00:31.441Z,99.90
2022-08-26T22:05:34.727Z,99.90
2022-08-26T22:10:42.822Z,99.90
2022-08-26T22:15:48.194Z,99.90
2022-08-26T22:20:53.016Z,99.90
2022-08-26T22:25:57.375Z,99.90
2022-08-26T22:31:00.887Z,99.90
2022-08-26T22:36:04.542Z,99.90
2022-08-26T22:41:09.306Z,99.90
2022-08-26T22:46:25.084Z,99.90
2022-08-26T22:51:29.495Z,99.90
2022-08-26T22:56:32.656Z,99.90
2022-08-26T23:01:38.516Z,99.90
2022-08-26T23:06:47.629Z,99.90
2022-08-26T23:11:51.804Z,99.90
2022-08-26T23:16:54.881Z,99.90
2022-08-26T23:21:57.947Z,99.90
2022-08-26T23:27:01.626Z,99.90
2022-08-26T23:32:06.092Z,99.90
2022-08-26T23:37:09.865Z,99.90
2022-08-26T23:42:14.285Z,99.90
2022-08-26T23:47:17.977Z,99.90
2022-08-26T23:52:39.845Z,99.90
2022-08-26T23:57:43.604Z,99.90
